createdAt,value
2019-04-14T00:00:12.063Z,0.00
2019-04-14T00:01:12.980Z,0.00
2019-04-14T00:02:12.039Z,0.00
2019-04-14T00:03:12.984Z,0.00
2019-04-14T00:04:12.032Z,0.00
2019-04-14T00:05:12.516Z,0.00
2019-04-14T00:06:11.997Z,0.00
2019-04-14T00:07:12.246Z,0.00
2019-04-14T00:08:12.001Z,0.00
2019-04-14T00:09:12.013Z,0.00
2019-04-14T00:10:11.952Z,0.00
2019-04-14T00:11:12.597Z,0.00
2019-04-14T00:12:12.136Z,0.00
2019-04-14T00:13:13.088Z,0.00
2019-04-14T00:14:11.916Z,0.00
2019-04-14T00:15:23.388Z,0.00
2019-04-14T00:16:14.113Z,0.00
2019-04-14T00:17:12.967Z,0.00
2019-04-14T00:18:11.915Z,0.00
2019-04-14T00:19:12.981Z,0.00
2019-04-14T00:20:11.930Z,0.00
2019-04-14T00:21:12.949Z,0.00
2019-04-14T00:22:11.869Z,0.00
2019-04-14T00:23:12.976Z,0.00
2019-04-14T00:24:11.808Z,0.00
2019-04-14T00:25:12.933Z,0.00
2019-04-14T00:26:11.830Z,0.00
2019-04-14T00:27:12.808Z,0.00
2019-04-14T00:28:11.801Z,0.00
2019-04-14T00:29:13.092Z,0.00
2019-04-14T00:30:11.919Z,0.00
2019-04-14T00:31:11.728Z,0.00
2019-04-14T00:32:11.799Z,0.00
2019-04-14T00:33:12.773Z,0.00
2019-04-14T00:34:11.694Z,0.00
2019-04-14T00:35:12.486Z,0.00
2019-04-14T00:36:11.678Z,0.00
2019-04-14T00:37:12.110Z,0.00
2019-04-14T00:38:12.972Z,0.00
2019-04-14T00:39:11.829Z,0.00
2019-04-14T00:40:12.809Z,0.00
2019-04-14T00:41:11.682Z,0.00
2019-04-14T00:42:12.678Z,0.00
2019-04-14T00:43:11.646Z,0.00
2019-04-14T00:44:12.431Z,0.00
2019-04-14T00:45:11.579Z,0.00
2019-04-14T00:46:12.526Z,0.00
2019-04-14T00:47:11.566Z,0.00
2019-04-14T00:48:14.972Z,0.00
2019-04-14T00:49:13.610Z,0.00
2019-04-14T00:50:12.531Z,0.00
2019-04-14T00:51:11.516Z,0.00
2019-04-14T00:52:12.463Z,0.00
2019-04-14T00:53:12.065Z,0.00
2019-04-14T00:54:13.231Z,0.00
2019-04-14T00:55:11.843Z,0.00
2019-04-14T00:56:11.469Z,0.00
2019-04-14T00:57:11.600Z,0.00
2019-04-14T00:58:12.677Z,0.00
2019-04-14T00:59:11.491Z,0.00
2019-04-14T01:00:12.712Z,0.00
2019-04-14T01:01:11.417Z,0.00
2019-04-14T01:02:12.381Z,0.00
2019-04-14T01:03:11.390Z,0.00
2019-04-14T01:04:12.249Z,0.00
2019-04-14T01:05:11.430Z,0.00
2019-04-14T01:06:12.222Z,0.00
2019-04-14T01:07:11.342Z,0.00
2019-04-14T01:08:11.995Z,0.00
2019-04-14T01:09:11.422Z,0.00
2019-04-14T01:10:11.318Z,0.00
2019-04-14T01:11:11.720Z,0.00
2019-04-14T01:12:11.332Z,0.00
2019-04-14T01:13:12.715Z,0.00
2019-04-14T01:14:12.558Z,0.00
2019-04-14T01:15:11.579Z,0.00
2019-04-14T01:16:15.432Z,0.00
2019-04-14T01:17:13.400Z,0.00
2019-04-14T01:18:12.431Z,0.00
2019-04-14T01:19:11.330Z,0.00
2019-04-14T01:20:12.401Z,0.00
2019-04-14T01:21:11.215Z,0.00
2019-04-14T01:22:11.992Z,0.00
2019-04-14T01:23:11.213Z,0.00
2019-04-14T01:24:14.146Z,0.00
2019-04-14T01:25:11.156Z,0.00
2019-04-14T01:26:11.761Z,0.00
2019-04-14T01:27:12.375Z,0.00
2019-04-14T01:28:11.352Z,0.00
2019-04-14T01:29:12.212Z,0.00
2019-04-14T01:30:11.273Z,0.00
2019-04-14T01:31:12.004Z,0.00
2019-04-14T01:32:11.254Z,0.00
2019-04-14T01:33:11.899Z,0.00
2019-04-14T01:34:11.079Z,0.00
2019-04-14T01:35:11.725Z,0.00
2019-04-14T01:36:11.029Z,0.00
2019-04-14T01:37:11.566Z,0.00
2019-04-14T01:38:11.015Z,0.00
2019-04-14T01:39:11.159Z,0.00
2019-04-14T01:40:12.041Z,0.00
2019-04-14T01:41:11.018Z,0.00
2019-04-14T01:42:11.623Z,0.00
2019-04-14T01:43:10.967Z,0.00
2019-04-14T01:44:11.273Z,0.00
2019-04-14T01:45:12.099Z,0.00
2019-04-14T01:46:16.574Z,0.00
2019-04-14T01:47:11.952Z,0.00
2019-04-14T01:48:10.955Z,0.00
2019-04-14T01:49:11.540Z,0.00
2019-04-14T01:50:10.964Z,0.00
2019-04-14T01:51:11.303Z,0.00
2019-04-14T01:52:10.931Z,0.00
2019-04-14T01:53:11.937Z,0.00
2019-04-14T01:54:10.956Z,0.00
2019-04-14T01:55:11.197Z,0.00
2019-04-14T01:56:10.872Z,0.00
2019-04-14T01:57:11.082Z,0.00
2019-04-14T01:58:12.123Z,0.00
2019-04-14T01:59:10.861Z,0.00
2019-04-14T02:00:11.970Z,0.00
2019-04-14T02:01:10.829Z,0.00
2019-04-14T02:02:11.887Z,0.00
2019-04-14T02:03:10.804Z,0.00
2019-04-14T02:04:11.673Z,0.00
2019-04-14T02:05:10.834Z,0.00
2019-04-14T02:06:11.437Z,0.00
2019-04-14T02:07:10.768Z,0.00
2019-04-14T02:08:11.224Z,0.00
2019-04-14T02:09:12.099Z,0.00
2019-04-14T02:10:10.784Z,0.00
2019-04-14T02:11:11.626Z,0.00
2019-04-14T02:12:10.704Z,0.00
2019-04-14T02:13:11.496Z,0.00
2019-04-14T02:14:10.685Z,0.00
2019-04-14T02:15:11.863Z,0.00
2019-04-14T02:16:21.097Z,0.00
2019-04-14T02:17:11.662Z,0.00
2019-04-14T02:18:11.995Z,0.00
2019-04-14T02:19:10.981Z,0.00
2019-04-14T02:20:11.849Z,0.00
2019-04-14T02:21:10.811Z,0.00
2019-04-14T02:22:11.685Z,0.00
2019-04-14T02:23:10.579Z,0.00
2019-04-14T02:24:11.345Z,0.00
2019-04-14T02:25:10.605Z,0.00
2019-04-14T02:26:11.217Z,0.00
2019-04-14T02:27:11.953Z,0.00
2019-04-14T02:28:11.240Z,0.00
2019-04-14T02:29:10.525Z,0.00
2019-04-14T02:30:17.388Z,0.00
2019-04-14T02:31:24.814Z,0.00
2019-04-14T02:33:40.278Z,0.00
2019-04-14T02:35:49.762Z,0.00
2019-04-14T02:36:41.640Z,0.00
2019-04-14T02:37:49.182Z,0.00
2019-04-14T02:38:49.340Z,0.00
2019-04-14T02:39:38.968Z,0.00
2019-04-14T02:43:37.980Z,0.00
2019-04-14T02:44:38.275Z,0.00
2019-04-14T02:48:48.056Z,0.00
2019-04-14T02:50:08.763Z,0.00
2019-04-14T02:50:30.649Z,0.00
2019-04-14T02:51:38.474Z,0.00
2019-04-14T02:52:34.903Z,0.00
2019-04-14T02:53:44.296Z,0.00
2019-04-14T02:54:43.653Z,0.00
2019-04-14T02:55:46.819Z,0.00
2019-04-14T02:56:40.141Z,0.00
2019-04-14T02:59:35.536Z,0.00
2019-04-14T03:01:38.769Z,0.00
2019-04-14T03:04:33.922Z,0.00
2019-04-14T03:05:44.722Z,0.00
2019-04-14T03:06:35.365Z,0.00
2019-04-14T03:07:41.992Z,0.00
2019-04-14T03:08:45.764Z,0.00
2019-04-14T03:09:42.265Z,0.00
2019-04-14T03:11:44.463Z,0.00
2019-04-14T03:13:35.149Z,0.00
2019-04-14T03:14:40.240Z,0.00
2019-04-14T03:15:43.182Z,0.00
2019-04-14T03:16:46.320Z,0.00
2019-04-14T03:17:39.125Z,0.00
2019-04-14T03:19:44.505Z,0.00
2019-04-14T03:20:31.862Z,0.00
2019-04-14T03:21:36.320Z,0.00
2019-04-14T03:24:32.914Z,0.00
2019-04-14T03:25:30.128Z,0.00
2019-04-14T03:26:38.236Z,0.00
2019-04-14T03:27:41.897Z,0.00
2019-04-14T03:29:37.115Z,0.00
2019-04-14T03:30:58.547Z,0.00
2019-04-14T03:33:13.859Z,0.00
2019-04-14T03:34:39.239Z,0.00
2019-04-14T03:37:16.372Z,0.00
2019-04-14T03:37:45.329Z,0.00
2019-04-14T03:38:34.454Z,0.00
2019-04-14T03:39:38.583Z,0.00
2019-04-14T03:42:48.555Z,0.00
2019-04-14T03:43:39.236Z,0.00
2019-04-14T03:44:45.010Z,0.00
2019-04-14T03:45:42.891Z,0.00
2019-04-14T03:47:34.452Z,0.00
2019-04-14T03:49:37.439Z,0.00
2019-04-14T03:50:37.382Z,0.00
2019-04-14T03:51:52.491Z,0.00
2019-04-14T03:52:37.679Z,0.00
2019-04-14T03:54:25.840Z,0.00
2019-04-14T03:55:25.041Z,0.00
2019-04-14T03:56:14.388Z,0.00
2019-04-14T03:57:10.442Z,0.00
2019-04-14T03:58:11.489Z,0.00
2019-04-14T03:59:10.531Z,0.00
2019-04-14T04:00:09.656Z,0.00
2019-04-14T04:01:10.528Z,0.00
2019-04-14T04:02:09.718Z,0.00
2019-04-14T04:03:10.560Z,0.00
2019-04-14T04:04:09.702Z,0.00
2019-04-14T04:05:10.623Z,0.00
2019-04-14T04:06:09.730Z,4.00
2019-04-14T04:07:10.315Z,4.00
2019-04-14T04:08:09.443Z,0.00
2019-04-14T04:09:10.500Z,4.00
2019-04-14T04:10:09.500Z,4.00
2019-04-14T04:11:10.470Z,8.00
2019-04-14T04:12:09.634Z,4.00
2019-04-14T04:13:10.462Z,8.00
2019-04-14T04:14:09.644Z,8.00
2019-04-14T04:15:10.401Z,12.00
2019-04-14T04:16:09.401Z,12.00
2019-04-14T04:17:10.129Z,12.00
2019-04-14T04:18:09.314Z,16.00
2019-04-14T04:19:13.571Z,16.00
2019-04-14T04:20:11.004Z,20.00
2019-04-14T04:21:09.517Z,24.00
2019-04-14T04:22:13.541Z,28.00
2019-04-14T04:23:09.590Z,32.00
2019-04-14T04:24:09.245Z,36.00
2019-04-14T04:25:09.474Z,44.00
2019-04-14T04:26:10.221Z,52.00
2019-04-14T04:27:09.254Z,56.00
2019-04-14T04:28:10.186Z,64.00
2019-04-14T04:29:09.369Z,76.00
2019-04-14T04:30:10.214Z,84.00
2019-04-14T04:31:09.212Z,96.00
2019-04-14T04:32:09.950Z,104.00
2019-04-14T04:33:09.187Z,120.00
2019-04-14T04:34:09.780Z,132.00
2019-04-14T04:35:09.122Z,148.00
2019-04-14T04:36:09.533Z,164.00
2019-04-14T04:37:10.384Z,192.00
2019-04-14T04:38:09.526Z,216.00
2019-04-14T04:39:10.299Z,248.00
2019-04-14T04:40:09.405Z,280.00
2019-04-14T04:41:10.147Z,312.00
2019-04-14T04:42:09.227Z,348.00
2019-04-14T04:43:10.094Z,384.00
2019-04-14T04:44:09.439Z,424.00
2019-04-14T04:45:10.289Z,464.00
2019-04-14T04:46:09.150Z,508.00
2019-04-14T04:47:09.949Z,556.00
2019-04-14T04:48:09.083Z,608.00
2019-04-14T04:49:15.138Z,656.00
2019-04-14T04:50:10.766Z,708.00
2019-04-14T04:51:09.334Z,764.00
2019-04-14T04:52:11.435Z,828.00
2019-04-14T04:53:09.128Z,884.00
2019-04-14T04:54:08.922Z,948.00
2019-04-14T04:55:08.971Z,1004.00
2019-04-14T04:56:10.036Z,1064.00
2019-04-14T04:57:08.981Z,1116.00
2019-04-14T04:58:10.075Z,1200.00
2019-04-14T04:59:09.782Z,1260.00
2019-04-14T05:00:09.261Z,1332.00
2019-04-14T05:01:09.949Z,1400.00
2019-04-14T05:02:09.108Z,1480.00
2019-04-14T05:03:09.984Z,1552.00
2019-04-14T05:04:09.042Z,1620.00
2019-04-14T05:05:09.825Z,1708.00
2019-04-14T05:06:09.238Z,1780.00
2019-04-14T05:07:09.983Z,1864.00
2019-04-14T05:08:08.961Z,1948.00
2019-04-14T05:09:09.883Z,2020.00
2019-04-14T05:10:09.015Z,2124.00
2019-04-14T05:11:09.686Z,2216.00
2019-04-14T05:12:09.128Z,2312.00
2019-04-14T05:13:09.392Z,2412.00
2019-04-14T05:14:08.843Z,2516.00
2019-04-14T05:15:09.451Z,2584.00
2019-04-14T05:16:08.705Z,2728.00
2019-04-14T05:17:08.746Z,2808.00
2019-04-14T05:18:09.115Z,3036.00
2019-04-14T05:19:18.327Z,2972.00
2019-04-14T05:20:09.696Z,3132.00
2019-04-14T05:21:08.642Z,3200.00
2019-04-14T05:22:09.261Z,3284.00
2019-04-14T05:23:08.719Z,3572.00
2019-04-14T05:24:09.297Z,3644.00
2019-04-14T05:25:08.590Z,3724.00
2019-04-14T05:26:09.212Z,3960.00
2019-04-14T05:27:08.638Z,4064.00
2019-04-14T05:28:09.131Z,4200.00
2019-04-14T05:29:09.867Z,4352.00
2019-04-14T05:30:08.987Z,4488.00
2019-04-14T05:31:09.689Z,4728.00
2019-04-14T05:32:08.825Z,4808.00
2019-04-14T05:33:09.571Z,4984.00
2019-04-14T05:34:08.670Z,5116.00
2019-04-14T05:35:09.643Z,5208.00
2019-04-14T05:36:08.647Z,5468.00
2019-04-14T05:37:09.280Z,5548.00
2019-04-14T05:38:10.403Z,5700.00
2019-04-14T05:39:08.979Z,5872.00
2019-04-14T05:40:08.517Z,5968.00
2019-04-14T05:41:09.133Z,6028.00
2019-04-14T05:42:13.208Z,6452.00
2019-04-14T05:43:09.429Z,6664.00
2019-04-14T05:44:08.378Z,6684.00
2019-04-14T05:45:08.737Z,6684.00
2019-04-14T05:46:08.440Z,6876.00
2019-04-14T05:47:08.718Z,7252.00
2019-04-14T05:48:09.625Z,7200.00
2019-04-14T05:49:08.600Z,7532.00
2019-04-14T05:50:09.411Z,7592.00
2019-04-14T05:51:08.564Z,7744.00
2019-04-14T05:52:08.307Z,7944.00
2019-04-14T05:53:08.682Z,8296.00
2019-04-14T05:54:08.394Z,8380.00
2019-04-14T05:55:08.809Z,8576.00
2019-04-14T05:56:08.320Z,8460.00
2019-04-14T05:57:08.826Z,8932.00
2019-04-14T05:58:08.265Z,9176.00
2019-04-14T05:59:08.880Z,9388.00
2019-04-14T06:00:08.288Z,9532.00
2019-04-14T06:01:08.986Z,9716.00
2019-04-14T06:02:09.302Z,10056.00
2019-04-14T06:03:08.248Z,10280.00
2019-04-14T06:04:09.257Z,9976.00
2019-04-14T06:05:09.144Z,10400.00
2019-04-14T06:06:08.202Z,10724.00
2019-04-14T06:07:08.128Z,11176.00
2019-04-14T06:08:08.179Z,11096.00
2019-04-14T06:09:08.190Z,11296.00
2019-04-14T06:10:08.133Z,11644.00
2019-04-14T06:11:08.144Z,11864.00
2019-04-14T06:12:08.082Z,12704.00
2019-04-14T06:13:08.101Z,12344.00
2019-04-14T06:14:08.062Z,12808.00
2019-04-14T06:15:08.100Z,13064.00
2019-04-14T06:16:08.037Z,12504.00
2019-04-14T06:17:08.219Z,12900.00
2019-04-14T06:18:08.061Z,13052.00
2019-04-14T06:19:08.046Z,14084.00
2019-04-14T06:20:07.993Z,14820.00
2019-04-14T06:21:08.082Z,14300.00
2019-04-14T06:22:07.985Z,14708.00
2019-04-14T06:23:08.014Z,12828.00
2019-04-14T06:24:07.958Z,13816.00
2019-04-14T06:25:07.944Z,14336.00
2019-04-14T06:26:07.951Z,13112.00
2019-04-14T06:27:07.914Z,14456.00
2019-04-14T06:28:07.944Z,15616.00
2019-04-14T06:29:07.923Z,15840.00
2019-04-14T06:30:08.153Z,15744.00
2019-04-14T06:31:09.022Z,16096.00
2019-04-14T06:32:07.880Z,16576.00
2019-04-14T06:33:07.872Z,17440.00
2019-04-14T06:34:07.934Z,18848.00
2019-04-14T06:35:07.851Z,17728.00
2019-04-14T06:36:07.825Z,17664.00
2019-04-14T06:37:07.820Z,19776.00
2019-04-14T06:38:07.863Z,18112.00
2019-04-14T06:39:07.786Z,20704.00
2019-04-14T06:40:07.772Z,19392.00
2019-04-14T06:41:07.764Z,18048.00
2019-04-14T06:42:07.752Z,19648.00
2019-04-14T06:43:07.826Z,19456.00
2019-04-14T06:44:07.723Z,21952.00
2019-04-14T06:45:07.749Z,19552.00
2019-04-14T06:46:07.700Z,19968.00
2019-04-14T06:47:07.707Z,21184.00
2019-04-14T06:48:07.715Z,23200.00
2019-04-14T06:49:07.681Z,21696.00
2019-04-14T06:50:07.716Z,21920.00
2019-04-14T06:51:07.653Z,23808.00
2019-04-14T06:52:07.656Z,21952.00
2019-04-14T06:53:07.654Z,22112.00
2019-04-14T06:54:07.657Z,22304.00
2019-04-14T06:55:07.630Z,22432.00
2019-04-14T06:56:07.598Z,19488.00
2019-04-14T06:57:07.594Z,19840.00
2019-04-14T06:58:07.696Z,21120.00
2019-04-14T06:59:07.566Z,23232.00
2019-04-14T07:00:07.549Z,26080.00
2019-04-14T07:01:07.537Z,26496.00
2019-04-14T07:02:08.683Z,26464.00
2019-04-14T07:03:07.548Z,26656.00
2019-04-14T07:04:07.498Z,27424.00
2019-04-14T07:05:07.530Z,27072.00
2019-04-14T07:06:07.486Z,26752.00
2019-04-14T07:07:07.505Z,27712.00
2019-04-14T07:08:07.525Z,28160.00
2019-04-14T07:09:07.449Z,28384.00
2019-04-14T07:10:07.491Z,28832.00
2019-04-14T07:11:07.444Z,28480.00
2019-04-14T07:12:07.563Z,29312.00
2019-04-14T07:13:07.431Z,30304.00
2019-04-14T07:14:07.397Z,30464.00
2019-04-14T07:15:07.443Z,29888.00
2019-04-14T07:16:07.421Z,29696.00
2019-04-14T07:17:07.363Z,30464.00
2019-04-14T07:18:07.379Z,31584.00
2019-04-14T07:19:07.344Z,31776.00
2019-04-14T07:20:07.339Z,32576.00
2019-04-14T07:21:07.397Z,32960.00
2019-04-14T07:22:07.306Z,33696.00
2019-04-14T07:23:07.326Z,34560.00
2019-04-14T07:24:07.315Z,34816.00
2019-04-14T07:25:07.285Z,34944.00
2019-04-14T07:26:07.264Z,35424.00
2019-04-14T07:27:07.300Z,35072.00
2019-04-14T07:28:07.274Z,35520.00
2019-04-14T07:29:07.247Z,36160.00
2019-04-14T07:30:07.242Z,36768.00
2019-04-14T07:31:07.223Z,36800.00
2019-04-14T07:32:07.212Z,37056.00
2019-04-14T07:33:07.214Z,37408.00
2019-04-14T07:34:07.172Z,37472.00
2019-04-14T07:35:07.216Z,38336.00
2019-04-14T07:36:07.160Z,38624.00
2019-04-14T07:37:07.199Z,39040.00
2019-04-14T07:38:07.271Z,39520.00
2019-04-14T07:39:07.158Z,40064.00
2019-04-14T07:40:07.106Z,39904.00
2019-04-14T07:41:07.106Z,39584.00
2019-04-14T07:42:07.085Z,40512.00
2019-04-14T07:43:07.188Z,41152.00
2019-04-14T07:44:07.077Z,41664.00
2019-04-14T07:45:07.051Z,42688.00
2019-04-14T07:46:07.076Z,42240.00
2019-04-14T07:47:07.046Z,41280.00
2019-04-14T07:48:07.022Z,41728.00
2019-04-14T07:49:07.128Z,41536.00
2019-04-14T07:50:14.537Z,42720.00
2019-04-14T07:51:08.002Z,43840.00
2019-04-14T07:52:07.019Z,44416.00
2019-04-14T07:53:06.990Z,45152.00
2019-04-14T07:54:07.020Z,44096.00
2019-04-14T07:55:06.946Z,45792.00
2019-04-14T07:56:06.959Z,47264.00
2019-04-14T07:57:06.975Z,46624.00
2019-04-14T07:58:06.964Z,47200.00
2019-04-14T07:59:06.937Z,48128.00
2019-04-14T08:00:06.898Z,48832.00
2019-04-14T08:01:06.941Z,48480.00
2019-04-14T08:02:06.892Z,47840.00
2019-04-14T08:03:06.906Z,47776.00
2019-04-14T08:04:06.947Z,49184.00
2019-04-14T08:05:06.840Z,50240.00
2019-04-14T08:06:06.864Z,48672.00
2019-04-14T08:07:06.833Z,49184.00
2019-04-14T08:08:06.805Z,48288.00
2019-04-14T08:09:06.810Z,49280.00
2019-04-14T08:10:06.809Z,50304.00
2019-04-14T08:11:06.905Z,50368.00
2019-04-14T08:12:06.781Z,51328.00
2019-04-14T08:13:06.817Z,52352.00
2019-04-14T08:14:06.759Z,52992.00
2019-04-14T08:15:15.623Z,52224.00
2019-04-14T08:16:06.724Z,53088.00
2019-04-14T08:17:06.746Z,53792.00
2019-04-14T08:18:06.737Z,53920.00
2019-04-14T08:19:06.734Z,54496.00
2019-04-14T08:20:10.681Z,54848.00
2019-04-14T08:21:06.721Z,55200.00
2019-04-14T08:22:06.653Z,54272.00
2019-04-14T08:23:06.669Z,54144.00
2019-04-14T08:24:06.689Z,55520.00
2019-04-14T08:25:06.656Z,56672.00
2019-04-14T08:26:06.625Z,55360.00
2019-04-14T08:27:06.632Z,53760.00
2019-04-14T08:28:06.632Z,54624.00
2019-04-14T08:29:06.629Z,56672.00
2019-04-14T08:30:06.650Z,57216.00
2019-04-14T08:31:06.564Z,55840.00
2019-04-14T08:32:06.606Z,55136.00
2019-04-14T08:33:06.518Z,55264.00
2019-04-14T08:34:06.509Z,55968.00
2019-04-14T08:35:08.286Z,56864.00
2019-04-14T08:36:06.600Z,56736.00
2019-04-14T08:37:06.490Z,56832.00
2019-04-14T08:38:06.478Z,58880.00
2019-04-14T08:39:06.496Z,60800.00
2019-04-14T08:40:06.560Z,61216.00
2019-04-14T08:41:06.483Z,59968.00
2019-04-14T08:42:06.515Z,59136.00
2019-04-14T08:43:06.438Z,58400.00
2019-04-14T08:44:06.484Z,58176.00
2019-04-14T08:45:06.440Z,61376.00
2019-04-14T08:46:06.442Z,63264.00
2019-04-14T08:47:06.388Z,62336.00
2019-04-14T08:48:06.373Z,60000.00
2019-04-14T08:49:06.379Z,59712.00
2019-04-14T08:50:07.106Z,63072.00
2019-04-14T08:51:06.386Z,63328.00
2019-04-14T08:52:06.344Z,62688.00
2019-04-14T08:53:06.332Z,62784.00
2019-04-14T08:54:06.293Z,62272.00
2019-04-14T08:55:07.226Z,62432.00
2019-04-14T08:56:06.267Z,63072.00
2019-04-14T08:57:06.263Z,62944.00
2019-04-14T08:58:06.298Z,63776.00
2019-04-14T08:59:06.355Z,65216.00
2019-04-14T09:00:06.273Z,65408.00
2019-04-14T09:01:06.269Z,64960.00
2019-04-14T09:02:06.202Z,68512.00
2019-04-14T09:03:06.231Z,69280.00
2019-04-14T09:04:06.271Z,67808.00
2019-04-14T09:05:06.171Z,69856.00
2019-04-14T09:06:06.194Z,70688.00
2019-04-14T09:07:06.192Z,69632.00
2019-04-14T09:08:06.278Z,69952.00
2019-04-14T09:09:07.482Z,68608.00
2019-04-14T09:10:06.166Z,68544.00
2019-04-14T09:11:06.165Z,70848.00
2019-04-14T09:12:15.307Z,71808.00
2019-04-14T09:13:07.136Z,69792.00
2019-04-14T09:14:06.125Z,72896.00
2019-04-14T09:15:06.135Z,71840.00
2019-04-14T09:16:06.610Z,71104.00
2019-04-14T09:17:06.089Z,72800.00
2019-04-14T09:18:06.063Z,69696.00
2019-04-14T09:19:07.878Z,71296.00
2019-04-14T09:20:06.014Z,74752.00
2019-04-14T09:21:06.116Z,74816.00
2019-04-14T09:22:06.026Z,75264.00
2019-04-14T09:23:05.989Z,72704.00
2019-04-14T09:24:05.971Z,73600.00
2019-04-14T09:25:06.058Z,74240.00
2019-04-14T09:26:06.009Z,74880.00
2019-04-14T09:27:06.004Z,73280.00
2019-04-14T09:28:05.944Z,73632.00
2019-04-14T09:29:05.932Z,74912.00
2019-04-14T09:30:05.946Z,75488.00
2019-04-14T09:31:05.925Z,77120.00
2019-04-14T09:32:05.991Z,77600.00
2019-04-14T09:33:05.898Z,74528.00
2019-04-14T09:34:05.871Z,72992.00
2019-04-14T09:35:05.867Z,75296.00
2019-04-14T09:36:05.890Z,43872.00
2019-04-14T09:37:05.831Z,80736.00
2019-04-14T09:38:05.886Z,79520.00
2019-04-14T09:39:05.828Z,78112.00
2019-04-14T09:40:05.898Z,77504.00
2019-04-14T09:41:05.814Z,77248.00
2019-04-14T09:42:05.883Z,75328.00
2019-04-14T09:43:05.846Z,76576.00
2019-04-14T09:44:05.805Z,78016.00
2019-04-14T09:45:05.824Z,78816.00
2019-04-14T09:46:05.784Z,81440.00
2019-04-14T09:47:05.738Z,76416.00
2019-04-14T09:48:05.701Z,78112.00
2019-04-14T09:49:05.793Z,80384.00
2019-04-14T09:50:05.686Z,79840.00
2019-04-14T09:51:06.630Z,80608.00
2019-04-14T09:52:05.798Z,80384.00
2019-04-14T09:53:05.659Z,82336.00
2019-04-14T09:54:05.649Z,80256.00
2019-04-14T09:55:05.639Z,79392.00
2019-04-14T09:56:05.674Z,82720.00
2019-04-14T09:57:05.630Z,83296.00
2019-04-14T09:58:05.647Z,81152.00
2019-04-14T09:59:05.596Z,81600.00
2019-04-14T10:00:05.592Z,80672.00
2019-04-14T10:01:05.590Z,79744.00
2019-04-14T10:02:05.589Z,78240.00
2019-04-14T10:03:05.586Z,79072.00
2019-04-14T10:04:05.530Z,82016.00
2019-04-14T10:05:05.542Z,81984.00
2019-04-14T10:06:05.531Z,79584.00
2019-04-14T10:07:06.214Z,83936.00
2019-04-14T10:08:05.478Z,80544.00
2019-04-14T10:09:05.504Z,82720.00
2019-04-14T10:10:05.463Z,84288.00
2019-04-14T10:11:05.474Z,81184.00
2019-04-14T10:12:07.155Z,85376.00
2019-04-14T10:13:05.446Z,85568.00
2019-04-14T10:14:05.447Z,85952.00
2019-04-14T10:15:05.503Z,86112.00
2019-04-14T10:16:05.442Z,85408.00
2019-04-14T10:17:13.519Z,89152.00
2019-04-14T10:18:05.374Z,81728.00
2019-04-14T10:19:05.412Z,81600.00
2019-04-14T10:20:05.367Z,85632.00
2019-04-14T10:21:16.929Z,32704.00
2019-04-14T10:22:06.363Z,34080.00
2019-04-14T10:23:05.437Z,52352.00
2019-04-14T10:24:05.375Z,88512.00
2019-04-14T10:25:05.346Z,89152.00
2019-04-14T10:26:05.299Z,28768.00
2019-04-14T10:27:05.390Z,32288.00
2019-04-14T10:28:05.357Z,84608.00
2019-04-14T10:29:05.268Z,87360.00
2019-04-14T10:30:05.254Z,88256.00
2019-04-14T10:31:05.273Z,88032.00
2019-04-14T10:32:11.137Z,91808.00
2019-04-14T10:33:05.316Z,88256.00
2019-04-14T10:34:05.206Z,84960.00
2019-04-14T10:35:05.255Z,87008.00
2019-04-14T10:36:05.292Z,88192.00
2019-04-14T10:37:05.208Z,90720.00
2019-04-14T10:38:05.315Z,89600.00
2019-04-14T10:39:05.225Z,81440.00
2019-04-14T10:40:06.173Z,31104.00
2019-04-14T10:41:05.130Z,92960.00
2019-04-14T10:42:44.294Z,53920.00
2019-04-14T10:43:05.165Z,39648.00
2019-04-14T10:44:05.169Z,84672.00
2019-04-14T10:45:05.149Z,89248.00
2019-04-14T10:46:05.142Z,90304.00
2019-04-14T10:47:11.149Z,85568.00
2019-04-14T10:48:05.064Z,96896.00
2019-04-14T10:49:05.078Z,78816.00
2019-04-14T10:50:05.133Z,95328.00
2019-04-14T10:51:05.018Z,38720.00
2019-04-14T10:52:05.076Z,92736.00
2019-04-14T10:53:05.127Z,32288.00
2019-04-14T10:54:05.036Z,28256.00
2019-04-14T10:55:04.981Z,91424.00
2019-04-14T10:56:04.994Z,30624.00
2019-04-14T10:57:17.678Z,66144.00
2019-04-14T10:58:04.953Z,31424.00
2019-04-14T10:59:04.946Z,29120.00
2019-04-14T11:00:05.139Z,30688.00
2019-04-14T11:01:04.989Z,36640.00
2019-04-14T11:02:05.634Z,97760.00
2019-04-14T11:03:04.942Z,32384.00
2019-04-14T11:04:07.818Z,94144.00
2019-04-14T11:05:04.870Z,92896.00
2019-04-14T11:06:04.967Z,89920.00
2019-04-14T11:07:06.765Z,92896.00
2019-04-14T11:08:04.832Z,45664.00
2019-04-14T11:09:04.874Z,29728.00
2019-04-14T11:10:04.810Z,92800.00
2019-04-14T11:11:04.845Z,47520.00
2019-04-14T11:12:21.224Z,96864.00
2019-04-14T11:13:04.811Z,93248.00
2019-04-14T11:14:04.765Z,93568.00
2019-04-14T11:15:04.762Z,97536.00
2019-04-14T11:16:04.748Z,98944.00
2019-04-14T11:17:05.261Z,92448.00
2019-04-14T11:18:04.765Z,86848.00
2019-04-14T11:19:04.718Z,91104.00
2019-04-14T11:20:04.775Z,96064.00
2019-04-14T11:21:04.695Z,90112.00
2019-04-14T11:22:05.148Z,87776.00
2019-04-14T11:23:04.714Z,89312.00
2019-04-14T11:24:04.693Z,57120.00
2019-04-14T11:25:04.642Z,88608.00
2019-04-14T11:26:04.731Z,87744.00
2019-04-14T11:27:04.693Z,82688.00
2019-04-14T11:28:04.619Z,82528.00
2019-04-14T11:29:04.632Z,88576.00
2019-04-14T11:30:04.612Z,89536.00
2019-04-14T11:31:04.613Z,88512.00
2019-04-14T11:32:04.629Z,31584.00
2019-04-14T11:33:04.597Z,48352.00
2019-04-14T11:34:04.549Z,86624.00
2019-04-14T11:35:04.539Z,94240.00
2019-04-14T11:36:04.531Z,96032.00
2019-04-14T11:37:27.653Z,92800.00
2019-04-14T11:38:04.557Z,38016.00
2019-04-14T11:39:04.519Z,29920.00
2019-04-14T11:40:04.563Z,50528.00
2019-04-14T11:41:04.489Z,87360.00
2019-04-14T11:42:04.627Z,91264.00
2019-04-14T11:43:04.462Z,96256.00
2019-04-14T11:44:04.491Z,97120.00
2019-04-14T11:45:04.510Z,94688.00
2019-04-14T11:46:04.426Z,83840.00
2019-04-14T11:47:04.418Z,29536.00
2019-04-14T11:48:36.331Z,27968.00
2019-04-14T11:49:04.396Z,31392.00
2019-04-14T11:50:04.393Z,95136.00
2019-04-14T11:51:04.416Z,96544.00
2019-04-14T11:52:04.604Z,97408.00
2019-04-14T11:53:07.826Z,99520.00
2019-04-14T11:54:04.409Z,95232.00
2019-04-14T11:55:04.321Z,95584.00
2019-04-14T11:56:04.535Z,97728.00
2019-04-14T11:57:04.388Z,102496.00
2019-04-14T11:58:11.652Z,103968.00
2019-04-14T11:59:04.319Z,30144.00
2019-04-14T12:00:04.393Z,27264.00
2019-04-14T12:01:04.270Z,26944.00
2019-04-14T12:02:04.258Z,37696.00
2019-04-14T12:03:08.227Z,43872.00
2019-04-14T12:04:04.235Z,31040.00
2019-04-14T12:05:04.214Z,91424.00
2019-04-14T12:06:04.212Z,90240.00
2019-04-14T12:07:04.264Z,93280.00
2019-04-14T12:08:04.251Z,99136.00
2019-04-14T12:09:04.226Z,102752.00
2019-04-14T12:10:04.226Z,42080.00
2019-04-14T12:11:04.171Z,28064.00
2019-04-14T12:12:04.141Z,23104.00
2019-04-14T12:13:11.807Z,20384.00
2019-04-14T12:14:04.127Z,19104.00
2019-04-14T12:15:04.123Z,18624.00
2019-04-14T12:16:04.192Z,18816.00
2019-04-14T12:17:04.128Z,19584.00
2019-04-14T12:18:05.148Z,21344.00
2019-04-14T12:19:04.085Z,24640.00
2019-04-14T12:20:04.075Z,29024.00
2019-04-14T12:21:04.073Z,35072.00
2019-04-14T12:22:08.611Z,102624.00
2019-04-14T12:23:04.715Z,97728.00
2019-04-14T12:24:04.051Z,27264.00
2019-04-14T12:25:04.001Z,22816.00
2019-04-14T12:26:05.475Z,20608.00
2019-04-14T12:27:04.080Z,19136.00
2019-04-14T12:28:04.778Z,18144.00
2019-04-14T12:29:05.168Z,17856.00
2019-04-14T12:30:04.030Z,18976.00
2019-04-14T12:31:04.115Z,21408.00
2019-04-14T12:32:04.018Z,24960.00
2019-04-14T12:33:04.173Z,28896.00
2019-04-14T12:34:04.070Z,35232.00
2019-04-14T12:35:03.912Z,93280.00
2019-04-14T12:36:03.946Z,89504.00
2019-04-14T12:37:03.933Z,96224.00
2019-04-14T12:38:03.898Z,86624.00
2019-04-14T12:39:03.950Z,79104.00
2019-04-14T12:40:04.861Z,29600.00
2019-04-14T12:41:04.433Z,23712.00
2019-04-14T12:42:03.822Z,22144.00